sensor_id;sensor_type;location;lat;lon;timestamp;P1;durP1;ratioP1;P2;durP2;ratioP2
54452;SDS011;40363;52.270;10.546;2023-07-20T00:02:25;2.20;;;1.00;;
54452;SDS011;40363;52.270;10.546;2023-07-20T00:04:51;1.65;;;0.90;;
54452;SDS011;40363;52.270;10.546;2023-07-20T00:07:18;1.27;;;0.95;;
54452;SDS011;40363;52.270;10.546;2023-07-20T00:09:44;1.23;;;0.90;;
54452;SDS011;40363;52.270;10.546;2023-07-20T00:12:11;2.35;;;0.73;;
54452;SDS011;40363;52.270;10.546;2023-07-20T00:14:39;1.30;;;0.88;;
54452;SDS011;40363;52.270;10.546;2023-07-20T00:17:05;1.67;;;0.90;;
54452;SDS011;40363;52.270;10.546;2023-07-20T00:19:32;1.23;;;0.80;;
54452;SDS011;40363;52.270;10.546;2023-07-20T00:22:00;1.13;;;0.77;;
54452;SDS011;40363;52.270;10.546;2023-07-20T00:24:26;1.02;;;0.90;;
54452;SDS011;40363;52.270;10.546;2023-07-20T00:26:53;1.75;;;0.80;;
54452;SDS011;40363;52.270;10.546;2023-07-20T00:29:19;0.70;;;0.63;;
54452;SDS011;40363;52.270;10.546;2023-07-20T00:31:47;2.28;;;0.60;;
54452;SDS011;40363;52.270;10.546;2023-07-20T00:34:14;1.30;;;0.80;;
54452;SDS011;40363;52.270;10.546;2023-07-20T00:36:40;0.95;;;0.85;;
54452;SDS011;40363;52.270;10.546;2023-07-20T00:39:07;1.08;;;0.77;;
54452;SDS011;40363;52.270;10.546;2023-07-20T00:41:34;2.17;;;0.90;;
54452;SDS011;40363;52.270;10.546;2023-07-20T00:44:00;0.75;;;0.68;;
54452;SDS011;40363;52.270;10.546;2023-07-20T00:46:27;0.93;;;0.60;;
54452;SDS011;40363;52.270;10.546;2023-07-20T00:48:55;1.13;;;0.80;;
54452;SDS011;40363;52.270;10.546;2023-07-20T00:51:22;1.92;;;1.23;;
54452;SDS011;40363;52.270;10.546;2023-07-20T00:53:49;0.70;;;0.60;;
54452;SDS011;40363;52.270;10.546;2023-07-20T00:56:16;1.85;;;0.73;;
54452;SDS011;40363;52.270;10.546;2023-07-20T00:58:43;3.17;;;0.60;;
54452;SDS011;40363;52.270;10.546;2023-07-20T01:01:10;3.78;;;1.55;;
54452;SDS011;40363;52.270;10.546;2023-07-20T01:03:36;2.05;;;0.70;;
54452;SDS011;40363;52.270;10.546;2023-07-20T01:06:08;1.20;;;1.02;;
54452;SDS011;40363;52.270;10.546;2023-07-20T01:08:43;0.75;;;0.70;;
54452;SDS011;40363;52.270;10.546;2023-07-20T01:11:20;1.50;;;0.70;;
54452;SDS011;40363;52.270;10.546;2023-07-20T01:13:54;1.20;;;0.80;;
54452;SDS011;40363;52.270;10.546;2023-07-20T01:16:21;0.88;;;0.88;;
54452;SDS011;40363;52.270;10.546;2023-07-20T01:18:47;0.60;;;0.50;;
54452;SDS011;40363;52.270;10.546;2023-07-20T01:21:17;1.48;;;0.80;;
54452;SDS011;40363;52.270;10.546;2023-07-20T01:24:03;1.95;;;0.65;;
54452;SDS011;40363;52.270;10.546;2023-07-20T01:26:52;0.95;;;0.80;;
54452;SDS011;40363;52.270;10.546;2023-07-20T01:29:41;1.17;;;0.80;;
54452;SDS011;40363;52.270;10.546;2023-07-20T01:32:20;0.88;;;0.60;;
54452;SDS011;40363;52.270;10.546;2023-07-20T01:34:50;0.98;;;0.80;;
54452;SDS011;40363;52.270;10.546;2023-07-20T01:37:20;0.75;;;0.65;;
54452;SDS011;40363;52.270;10.546;2023-07-20T01:39:50;1.23;;;0.70;;
54452;SDS011;40363;52.270;10.546;2023-07-20T01:42:20;1.58;;;0.80;;
54452;SDS011;40363;52.270;10.546;2023-07-20T01:44:47;0.85;;;0.63;;
54452;SDS011;40363;52.270;10.546;2023-07-20T01:47:16;1.40;;;0.90;;
54452;SDS011;40363;52.270;10.546;2023-07-20T01:49:44;1.05;;;0.93;;
54452;SDS011;40363;52.270;10.546;2023-07-20T01:52:10;1.13;;;0.70;;
54452;SDS011;40363;52.270;10.546;2023-07-20T01:54:37;1.52;;;0.90;;
54452;SDS011;40363;52.270;10.546;2023-07-20T01:57:04;0.65;;;0.57;;
54452;SDS011;40363;52.270;10.546;2023-07-20T01:59:31;2.17;;;1.00;;
54452;SDS011;40363;52.270;10.546;2023-07-20T02:01:57;2.05;;;0.90;;
54452;SDS011;40363;52.270;10.546;2023-07-20T02:04:24;1.58;;;0.68;;
54452;SDS011;40363;52.270;10.546;2023-07-20T02:06:52;0.98;;;0.75;;
54452;SDS011;40363;52.270;10.546;2023-07-20T02:09:18;3.00;;;1.02;;
54452;SDS011;40363;52.270;10.546;2023-07-20T02:11:45;5.35;;;0.90;;
54452;SDS011;40363;52.270;10.546;2023-07-20T02:14:11;0.77;;;0.75;;
54452;SDS011;40363;52.270;10.546;2023-07-20T02:16:38;1.58;;;0.90;;
54452;SDS011;40363;52.270;10.546;2023-07-20T02:19:04;1.70;;;0.70;;
54452;SDS011;40363;52.270;10.546;2023-07-20T02:21:32;3.90;;;1.10;;
54452;SDS011;40363;52.270;10.546;2023-07-20T02:24:00;1.95;;;0.65;;
54452;SDS011;40363;52.270;10.546;2023-07-20T02:26:26;0.63;;;0.63;;
54452;SDS011;40363;52.270;10.546;2023-07-20T02:28:53;0.90;;;0.60;;
54452;SDS011;40363;52.270;10.546;2023-07-20T02:31:19;1.02;;;0.60;;
54452;SDS011;40363;52.270;10.546;2023-07-20T02:33:46;1.00;;;0.70;;
54452;SDS011;40363;52.270;10.546;2023-07-20T02:36:12;0.60;;;0.50;;
54452;SDS011;40363;52.270;10.546;2023-07-20T02:38:39;1.08;;;0.80;;
54452;SDS011;40363;52.270;10.546;2023-07-20T02:41:07;0.60;;;0.60;;
54452;SDS011;40363;52.270;10.546;2023-07-20T02:43:33;1.67;;;0.80;;
54452;SDS011;40363;52.270;10.546;2023-07-20T02:46:00;0.60;;;0.60;;
54452;SDS011;40363;52.270;10.546;2023-07-20T02:48:27;0.65;;;0.65;;
54452;SDS011;40363;52.270;10.546;2023-07-20T02:50:53;0.63;;;0.50;;
54452;SDS011;40363;52.270;10.546;2023-07-20T02:53:20;1.52;;;1.42;;
54452;SDS011;40363;52.270;10.546;2023-07-20T02:55:46;1.15;;;0.73;;
54452;SDS011;40363;52.270;10.546;2023-07-20T02:58:14;2.38;;;0.77;;
54452;SDS011;40363;52.270;10.546;2023-07-20T03:00:42;1.08;;;0.60;;
54452;SDS011;40363;52.270;10.546;2023-07-20T03:03:08;2.42;;;0.60;;
54452;SDS011;40363;52.270;10.546;2023-07-20T03:05:35;1.27;;;0.70;;
54452;SDS011;40363;52.270;10.546;2023-07-20T03:08:04;0.90;;;0.70;;
54452;SDS011;40363;52.270;10.546;2023-07-20T03:10:31;2.55;;;0.52;;
54452;SDS011;40363;52.270;10.546;2023-07-20T03:12:58;0.70;;;0.70;;
54452;SDS011;40363;52.270;10.546;2023-07-20T03:15:25;2.90;;;0.80;;
54452;SDS011;40363;52.270;10.546;2023-07-20T03:17:52;1.88;;;0.98;;
54452;SDS011;40363;52.270;10.546;2023-07-20T03:20:19;1.10;;;1.00;;
54452;SDS011;40363;52.270;10.546;2023-07-20T03:22:45;1.05;;;0.93;;
54452;SDS011;40363;52.270;10.546;2023-07-20T03:25:12;1.85;;;0.75;;
54452;SDS011;40363;52.270;10.546;2023-07-20T03:27:39;2.50;;;0.90;;
54452;SDS011;40363;52.270;10.546;2023-07-20T03:30:07;1.00;;;0.75;;
54452;SDS011;40363;52.270;10.546;2023-07-20T03:32:36;2.05;;;0.70;;
54452;SDS011;40363;52.270;10.546;2023-07-20T03:35:02;1.10;;;0.70;;
54452;SDS011;40363;52.270;10.546;2023-07-20T03:37:29;0.93;;;0.70;;
54452;SDS011;40363;52.270;10.546;2023-07-20T03:39:56;1.88;;;0.73;;
54452;SDS011;40363;52.270;10.546;2023-07-20T03:42:22;1.42;;;0.70;;
54452;SDS011;40363;52.270;10.546;2023-07-20T03:44:49;0.80;;;0.70;;
54452;SDS011;40363;52.270;10.546;2023-07-20T03:47:16;1.23;;;0.80;;
54452;SDS011;40363;52.270;10.546;2023-07-20T03:49:44;1.23;;;0.60;;
54452;SDS011;40363;52.270;10.546;2023-07-20T03:52:10;1.23;;;0.60;;
54452;SDS011;40363;52.270;10.546;2023-07-20T03:54:37;0.85;;;0.70;;
54452;SDS011;40363;52.270;10.546;2023-07-20T03:57:04;0.93;;;0.80;;
54452;SDS011;40363;52.270;10.546;2023-07-20T03:59:30;2.53;;;0.85;;
54452;SDS011;40363;52.270;10.546;2023-07-20T04:01:58;1.10;;;0.60;;
54452;SDS011;40363;52.270;10.546;2023-07-20T04:04:25;1.60;;;0.60;;
54452;SDS011;40363;52.270;10.546;2023-07-20T04:06:53;1.50;;;0.93;;
54452;SDS011;40363;52.270;10.546;2023-07-20T04:09:19;1.17;;;0.73;;
54452;SDS011;40363;52.270;10.546;2023-07-20T04:11:46;1.08;;;0.63;;
54452;SDS011;40363;52.270;10.546;2023-07-20T04:14:12;1.20;;;0.77;;
54452;SDS011;40363;52.270;10.546;2023-07-20T04:16:39;0.93;;;0.77;;
54452;SDS011;40363;52.270;10.546;2023-07-20T04:19:05;1.00;;;0.90;;
54452;SDS011;40363;52.270;10.546;2023-07-20T04:21:39;1.55;;;0.73;;
54452;SDS011;40363;52.270;10.546;2023-07-20T04:24:07;1.02;;;0.93;;
54452;SDS011;40363;52.270;10.546;2023-07-20T04:26:34;2.00;;;0.85;;
54452;SDS011;40363;52.270;10.546;2023-07-20T04:29:01;1.58;;;0.80;;
54452;SDS011;40363;52.270;10.546;2023-07-20T04:31:28;1.00;;;0.68;;
54452;SDS011;40363;52.270;10.546;2023-07-20T04:33:57;0.93;;;0.80;;
54452;SDS011;40363;52.270;10.546;2023-07-20T04:36:24;1.25;;;0.80;;
54452;SDS011;40363;52.270;10.546;2023-07-20T04:38:50;0.75;;;0.57;;
54452;SDS011;40363;52.270;10.546;2023-07-20T04:41:18;0.80;;;0.77;;
54452;SDS011;40363;52.270;10.546;2023-07-20T04:43:46;1.27;;;0.90;;
54452;SDS011;40363;52.270;10.546;2023-07-20T04:46:13;3.10;;;1.00;;
54452;SDS011;40363;52.270;10.546;2023-07-20T04:48:40;1.52;;;0.90;;
54452;SDS011;40363;52.270;10.546;2023-07-20T04:51:06;1.42;;;1.15;;
54452;SDS011;40363;52.270;10.546;2023-07-20T04:53:33;2.78;;;0.80;;
54452;SDS011;40363;52.270;10.546;2023-07-20T04:55:59;1.10;;;0.80;;
54452;SDS011;40363;52.270;10.546;2023-07-20T04:58:27;1.00;;;0.60;;
54452;SDS011;40363;52.270;10.546;2023-07-20T05:00:54;0.60;;;0.60;;
54452;SDS011;40363;52.270;10.546;2023-07-20T05:03:20;1.02;;;0.73;;
54452;SDS011;40363;52.270;10.546;2023-07-20T05:05:47;1.48;;;0.77;;
54452;SDS011;40363;52.270;10.546;2023-07-20T05:08:14;0.98;;;0.68;;
54452;SDS011;40363;52.270;10.546;2023-07-20T05:10:41;1.05;;;0.73;;
54452;SDS011;40363;52.270;10.546;2023-07-20T05:13:07;1.52;;;0.90;;
54452;SDS011;40363;52.270;10.546;2023-07-20T05:15:35;1.75;;;0.90;;
54452;SDS011;40363;52.270;10.546;2023-07-20T05:18:02;3.00;;;0.95;;
54452;SDS011;40363;52.270;10.546;2023-07-20T05:20:28;1.13;;;0.80;;
54452;SDS011;40363;52.270;10.546;2023-07-20T05:22:56;1.23;;;0.80;;
54452;SDS011;40363;52.270;10.546;2023-07-20T05:25:23;1.65;;;0.85;;
54452;SDS011;40363;52.270;10.546;2023-07-20T05:27:49;1.83;;;0.85;;
54452;SDS011;40363;52.270;10.546;2023-07-20T05:30:16;0.85;;;0.70;;
54452;SDS011;40363;52.270;10.546;2023-07-20T05:32:44;1.50;;;0.90;;
54452;SDS011;40363;52.270;10.546;2023-07-20T05:35:16;1.08;;;1.00;;
54452;SDS011;40363;52.270;10.546;2023-07-20T05:37:42;3.35;;;0.93;;
54452;SDS011;40363;52.270;10.546;2023-07-20T05:40:09;1.67;;;0.85;;
54452;SDS011;40363;52.270;10.546;2023-07-20T05:42:37;0.98;;;0.88;;
54452;SDS011;40363;52.270;10.546;2023-07-20T05:45:04;2.40;;;0.93;;
54452;SDS011;40363;52.270;10.546;2023-07-20T05:47:31;1.77;;;0.82;;
54452;SDS011;40363;52.270;10.546;2023-07-20T05:49:59;2.90;;;1.20;;
54452;SDS011;40363;52.270;10.546;2023-07-20T05:52:26;2.45;;;0.95;;
54452;SDS011;40363;52.270;10.546;2023-07-20T05:54:52;1.80;;;1.13;;
54452;SDS011;40363;52.270;10.546;2023-07-20T05:57:19;2.90;;;1.10;;
54452;SDS011;40363;52.270;10.546;2023-07-20T05:59:46;3.25;;;1.30;;
54452;SDS011;40363;52.270;10.546;2023-07-20T06:02:12;2.63;;;1.35;;
54452;SDS011;40363;52.270;10.546;2023-07-20T06:04:39;2.30;;;1.52;;
54452;SDS011;40363;52.270;10.546;2023-07-20T06:07:07;2.50;;;1.40;;
54452;SDS011;40363;52.270;10.546;2023-07-20T06:09:33;2.47;;;1.50;;
54452;SDS011;40363;52.270;10.546;2023-07-20T06:12:00;2.35;;;1.65;;
54452;SDS011;40363;52.270;10.546;2023-07-20T06:14:27;3.22;;;1.67;;
54452;SDS011;40363;52.270;10.546;2023-07-20T06:16:53;4.97;;;1.88;;
54452;SDS011;40363;52.270;10.546;2023-07-20T06:19:20;1.75;;;1.25;;
54452;SDS011;40363;52.270;10.546;2023-07-20T06:21:47;1.63;;;1.42;;
54452;SDS011;40363;52.270;10.546;2023-07-20T06:24:15;4.47;;;1.65;;
54452;SDS011;40363;52.270;10.546;2023-07-20T06:26:42;2.03;;;1.27;;
54452;SDS011;40363;52.270;10.546;2023-07-20T06:29:09;4.15;;;1.50;;
54452;SDS011;40363;52.270;10.546;2023-07-20T06:31:36;1.52;;;1.10;;
54452;SDS011;40363;52.270;10.546;2023-07-20T06:34:02;2.85;;;1.25;;
54452;SDS011;40363;52.270;10.546;2023-07-20T06:36:29;2.55;;;1.30;;
54452;SDS011;40363;52.270;10.546;2023-07-20T06:38:56;2.10;;;1.27;;
54452;SDS011;40363;52.270;10.546;2023-07-20T06:41:24;2.17;;;1.40;;
54452;SDS011;40363;52.270;10.546;2023-07-20T06:43:50;2.25;;;1.33;;
54452;SDS011;40363;52.270;10.546;2023-07-20T06:46:17;1.70;;;1.38;;
54452;SDS011;40363;52.270;10.546;2023-07-20T06:48:44;2.60;;;1.50;;
54452;SDS011;40363;52.270;10.546;2023-07-20T06:51:10;3.63;;;2.35;;
54452;SDS011;40363;52.270;10.546;2023-07-20T06:53:37;3.08;;;1.80;;
54452;SDS011;40363;52.270;10.546;2023-07-20T06:56:03;2.92;;;1.70;;
54452;SDS011;40363;52.270;10.546;2023-07-20T06:58:31;2.78;;;2.03;;
54452;SDS011;40363;52.270;10.546;2023-07-20T07:00:58;2.63;;;1.90;;
54452;SDS011;40363;52.270;10.546;2023-07-20T07:03:25;2.65;;;1.98;;
54452;SDS011;40363;52.270;10.546;2023-07-20T07:05:54;3.50;;;2.17;;
54452;SDS011;40363;52.270;10.546;2023-07-20T07:08:21;2.45;;;1.65;;
54452;SDS011;40363;52.270;10.546;2023-07-20T07:10:47;4.60;;;2.72;;
54452;SDS011;40363;52.270;10.546;2023-07-20T07:13:14;4.25;;;2.33;;
54452;SDS011;40363;52.270;10.546;2023-07-20T07:15:42;5.75;;;2.75;;
54452;SDS011;40363;52.270;10.546;2023-07-20T07:18:08;3.65;;;2.17;;
54452;SDS011;40363;52.270;10.546;2023-07-20T07:20:35;4.03;;;2.42;;
54452;SDS011;40363;52.270;10.546;2023-07-20T07:23:02;3.67;;;2.33;;
54452;SDS011;40363;52.270;10.546;2023-07-20T07:25:28;4.40;;;2.30;;
54452;SDS011;40363;52.270;10.546;2023-07-20T07:27:55;4.45;;;2.30;;
54452;SDS011;40363;52.270;10.546;2023-07-20T07:30:21;3.50;;;2.55;;
54452;SDS011;40363;52.270;10.546;2023-07-20T07:32:49;4.65;;;2.50;;
54452;SDS011;40363;52.270;10.546;2023-07-20T07:35:16;4.22;;;2.50;;
54452;SDS011;40363;52.270;10.546;2023-07-20T07:37:42;3.53;;;2.15;;
54452;SDS011;40363;52.270;10.546;2023-07-20T07:40:11;4.70;;;2.67;;
54452;SDS011;40363;52.270;10.546;2023-07-20T07:42:38;3.05;;;2.28;;
54452;SDS011;40363;52.270;10.546;2023-07-20T07:45:05;3.28;;;2.10;;
54452;SDS011;40363;52.270;10.546;2023-07-20T07:47:32;2.55;;;1.77;;
54452;SDS011;40363;52.270;10.546;2023-07-20T07:50:00;2.40;;;1.45;;
54452;SDS011;40363;52.270;10.546;2023-07-20T07:52:27;1.55;;;1.20;;
54452;SDS011;40363;52.270;10.546;2023-07-20T07:54:53;2.95;;;1.08;;
54452;SDS011;40363;52.270;10.546;2023-07-20T07:57:20;1.48;;;1.20;;
54452;SDS011;40363;52.270;10.546;2023-07-20T07:59:46;1.90;;;1.08;;
54452;SDS011;40363;52.270;10.546;2023-07-20T08:02:13;1.38;;;1.05;;
54452;SDS011;40363;52.270;10.546;2023-07-20T08:04:40;1.27;;;0.80;;
54452;SDS011;40363;52.270;10.546;2023-07-20T08:07:08;1.20;;;1.00;;
54452;SDS011;40363;52.270;10.546;2023-07-20T08:09:34;1.90;;;0.82;;
54452;SDS011;40363;52.270;10.546;2023-07-20T08:12:01;3.88;;;1.63;;
54452;SDS011;40363;52.270;10.546;2023-07-20T08:14:28;2.55;;;1.10;;
54452;SDS011;40363;52.270;10.546;2023-07-20T08:16:55;2.38;;;1.17;;
54452;SDS011;40363;52.270;10.546;2023-07-20T08:19:23;3.08;;;1.42;;
54452;SDS011;40363;52.270;10.546;2023-07-20T08:21:50;2.53;;;1.30;;
54452;SDS011;40363;52.270;10.546;2023-07-20T08:24:18;6.45;;;2.67;;
54452;SDS011;40363;52.270;10.546;2023-07-20T08:26:44;6.53;;;1.35;;
54452;SDS011;40363;52.270;10.546;2023-07-20T08:29:11;2.97;;;1.23;;
54452;SDS011;40363;52.270;10.546;2023-07-20T08:31:37;1.85;;;1.50;;
54452;SDS011;40363;52.270;10.546;2023-07-20T08:34:04;2.88;;;1.30;;
54452;SDS011;40363;52.270;10.546;2023-07-20T08:36:30;2.17;;;1.10;;
54452;SDS011;40363;52.270;10.546;2023-07-20T08:38:57;2.15;;;1.13;;
54452;SDS011;40363;52.270;10.546;2023-07-20T08:41:28;1.48;;;0.77;;
54452;SDS011;40363;52.270;10.546;2023-07-20T08:43:55;1.02;;;0.93;;
54452;SDS011;40363;52.270;10.546;2023-07-20T08:46:23;1.38;;;0.77;;
54452;SDS011;40363;52.270;10.546;2023-07-20T08:48:53;1.77;;;0.60;;
54452;SDS011;40363;52.270;10.546;2023-07-20T08:51:21;2.60;;;0.95;;
54452;SDS011;40363;52.270;10.546;2023-07-20T08:53:50;2.80;;;0.90;;
54452;SDS011;40363;52.270;10.546;2023-07-20T08:56:17;2.28;;;0.88;;
54452;SDS011;40363;52.270;10.546;2023-07-20T08:58:49;1.55;;;0.60;;
54452;SDS011;40363;52.270;10.546;2023-07-20T09:01:16;2.50;;;0.75;;
54452;SDS011;40363;52.270;10.546;2023-07-20T09:03:44;3.20;;;0.85;;
54452;SDS011;40363;52.270;10.546;2023-07-20T09:06:12;0.90;;;0.55;;
54452;SDS011;40363;52.270;10.546;2023-07-20T09:08:38;0.98;;;0.55;;
54452;SDS011;40363;52.270;10.546;2023-07-20T09:11:05;3.50;;;0.90;;
54452;SDS011;40363;52.270;10.546;2023-07-20T09:13:32;0.60;;;0.40;;
54452;SDS011;40363;52.270;10.546;2023-07-20T09:16:00;0.65;;;0.50;;
54452;SDS011;40363;52.270;10.546;2023-07-20T09:18:29;0.75;;;0.50;;
54452;SDS011;40363;52.270;10.546;2023-07-20T09:21:00;1.00;;;0.47;;
54452;SDS011;40363;52.270;10.546;2023-07-20T09:23:31;1.85;;;0.60;;
54452;SDS011;40363;52.270;10.546;2023-07-20T09:26:08;1.48;;;0.68;;
54452;SDS011;40363;52.270;10.546;2023-07-20T09:28:39;0.90;;;0.60;;
54452;SDS011;40363;52.270;10.546;2023-07-20T09:31:15;1.95;;;0.50;;
54452;SDS011;40363;52.270;10.546;2023-07-20T09:33:43;0.68;;;0.40;;
54452;SDS011;40363;52.270;10.546;2023-07-20T09:36:10;1.30;;;0.52;;
54452;SDS011;40363;52.270;10.546;2023-07-20T09:38:37;0.60;;;0.52;;
54452;SDS011;40363;52.270;10.546;2023-07-20T09:41:04;0.47;;;0.35;;
54452;SDS011;40363;52.270;10.546;2023-07-20T09:43:32;0.65;;;0.52;;
54452;SDS011;40363;52.270;10.546;2023-07-20T09:46:02;2.33;;;0.40;;
54452;SDS011;40363;52.270;10.546;2023-07-20T09:48:36;0.95;;;0.30;;
54452;SDS011;40363;52.270;10.546;2023-07-20T09:51:02;1.25;;;0.35;;
54452;SDS011;40363;52.270;10.546;2023-07-20T09:53:32;0.60;;;0.50;;
54452;SDS011;40363;52.270;10.546;2023-07-20T09:55:59;2.38;;;0.60;;
54452;SDS011;40363;52.270;10.546;2023-07-20T09:58:25;0.50;;;0.40;;
54452;SDS011;40363;52.270;10.546;2023-07-20T10:00:52;1.05;;;0.60;;
54452;SDS011;40363;52.270;10.546;2023-07-20T10:03:25;0.50;;;0.43;;
54452;SDS011;40363;52.270;10.546;2023-07-20T10:05:56;0.93;;;0.70;;
54452;SDS011;40363;52.270;10.546;2023-07-20T10:08:25;0.85;;;0.45;;
54452;SDS011;40363;52.270;10.546;2023-07-20T10:10:51;1.58;;;0.50;;
54452;SDS011;40363;52.270;10.546;2023-07-20T10:13:20;1.75;;;0.47;;
54452;SDS011;40363;52.270;10.546;2023-07-20T10:15:53;3.47;;;0.60;;
54452;SDS011;40363;52.270;10.546;2023-07-20T10:18:22;1.17;;;0.50;;
54452;SDS011;40363;52.270;10.546;2023-07-20T10:20:55;0.43;;;0.40;;
54452;SDS011;40363;52.270;10.546;2023-07-20T10:23:25;1.92;;;0.65;;
54452;SDS011;40363;52.270;10.546;2023-07-20T10:25:54;0.93;;;0.50;;
54452;SDS011;40363;52.270;10.546;2023-07-20T10:28:22;0.40;;;0.40;;
54452;SDS011;40363;52.270;10.546;2023-07-20T10:30:49;0.50;;;0.50;;
54452;SDS011;40363;52.270;10.546;2023-07-20T10:33:16;0.95;;;0.60;;
54452;SDS011;40363;52.270;10.546;2023-07-20T10:35:50;2.47;;;0.82;;
54452;SDS011;40363;52.270;10.546;2023-07-20T10:38:18;0.47;;;0.47;;
54452;SDS011;40363;52.270;10.546;2023-07-20T10:40:53;0.80;;;0.52;;
54452;SDS011;40363;52.270;10.546;2023-07-20T10:43:20;1.35;;;0.47;;
54452;SDS011;40363;52.270;10.546;2023-07-20T10:45:48;0.65;;;0.47;;
54452;SDS011;40363;52.270;10.546;2023-07-20T10:48:17;2.75;;;0.40;;
54452;SDS011;40363;52.270;10.546;2023-07-20T10:50:44;1.00;;;0.70;;
54452;SDS011;40363;52.270;10.546;2023-07-20T10:53:12;0.50;;;0.50;;
54452;SDS011;40363;52.270;10.546;2023-07-20T10:55:42;0.55;;;0.55;;
54452;SDS011;40363;52.270;10.546;2023-07-20T10:58:11;0.63;;;0.50;;
54452;SDS011;40363;52.270;10.546;2023-07-20T11:00:54;1.33;;;0.57;;
54452;SDS011;40363;52.270;10.546;2023-07-20T11:03:32;0.90;;;0.50;;
54452;SDS011;40363;52.270;10.546;2023-07-20T11:05:59;1.05;;;0.40;;
54452;SDS011;40363;52.270;10.546;2023-07-20T11:09:04;1.27;;;0.50;;
54452;SDS011;40363;52.270;10.546;2023-07-20T11:11:34;0.80;;;0.57;;
54452;SDS011;40363;52.270;10.546;2023-07-20T11:14:02;2.47;;;0.52;;
54452;SDS011;40363;52.270;10.546;2023-07-20T11:16:33;1.20;;;0.50;;
54452;SDS011;40363;52.270;10.546;2023-07-20T11:19:01;4.25;;;0.77;;
54452;SDS011;40363;52.270;10.546;2023-07-20T11:21:28;2.47;;;0.70;;
54452;SDS011;40363;52.270;10.546;2023-07-20T11:23:55;0.50;;;0.47;;
54452;SDS011;40363;52.270;10.546;2023-07-20T11:26:22;2.00;;;1.00;;
54452;SDS011;40363;52.270;10.546;2023-07-20T11:28:50;0.95;;;0.70;;
54452;SDS011;40363;52.270;10.546;2023-07-20T11:31:17;1.80;;;0.60;;
54452;SDS011;40363;52.270;10.546;2023-07-20T11:33:44;1.27;;;0.70;;
54452;SDS011;40363;52.270;10.546;2023-07-20T11:36:10;1.52;;;0.93;;
54452;SDS011;40363;52.270;10.546;2023-07-20T11:38:37;2.70;;;0.80;;
54452;SDS011;40363;52.270;10.546;2023-07-20T11:41:05;0.60;;;0.60;;
54452;SDS011;40363;52.270;10.546;2023-07-20T11:43:32;2.83;;;0.60;;
54452;SDS011;40363;52.270;10.546;2023-07-20T11:46:00;1.42;;;0.60;;
54452;SDS011;40363;52.270;10.546;2023-07-20T11:48:27;0.57;;;0.45;;
54452;SDS011;40363;52.270;10.546;2023-07-20T11:50:53;2.35;;;1.17;;
54452;SDS011;40363;52.270;10.546;2023-07-20T11:53:20;1.38;;;0.73;;
54452;SDS011;40363;52.270;10.546;2023-07-20T11:55:46;1.00;;;0.82;;
54452;SDS011;40363;52.270;10.546;2023-07-20T11:58:13;2.33;;;0.70;;
54452;SDS011;40363;52.270;10.546;2023-07-20T12:00:41;0.57;;;0.57;;
54452;SDS011;40363;52.270;10.546;2023-07-20T12:03:11;1.48;;;0.40;;
54452;SDS011;40363;52.270;10.546;2023-07-20T12:05:38;2.42;;;0.63;;
54452;SDS011;40363;52.270;10.546;2023-07-20T12:08:05;0.82;;;0.68;;
54452;SDS011;40363;52.270;10.546;2023-07-20T12:10:32;0.63;;;0.55;;
54452;SDS011;40363;52.270;10.546;2023-07-20T12:13:08;0.90;;;0.50;;
54452;SDS011;40363;52.270;10.546;2023-07-20T12:15:37;1.05;;;0.52;;
54452;SDS011;40363;52.270;10.546;2023-07-20T12:18:04;1.40;;;0.50;;
54452;SDS011;40363;52.270;10.546;2023-07-20T12:20:33;0.80;;;0.60;;
54452;SDS011;40363;52.270;10.546;2023-07-20T12:23:01;1.00;;;0.50;;
54452;SDS011;40363;52.270;10.546;2023-07-20T12:25:33;0.95;;;0.50;;
54452;SDS011;40363;52.270;10.546;2023-07-20T12:28:04;0.50;;;0.43;;
54452;SDS011;40363;52.270;10.546;2023-07-20T12:30:31;3.38;;;0.60;;
54452;SDS011;40363;52.270;10.546;2023-07-20T12:32:58;2.85;;;0.52;;
54452;SDS011;40363;52.270;10.546;2023-07-20T12:35:25;1.92;;;0.45;;
54452;SDS011;40363;52.270;10.546;2023-07-20T12:37:53;0.88;;;0.63;;
54452;SDS011;40363;52.270;10.546;2023-07-20T12:40:19;0.50;;;0.47;;
54452;SDS011;40363;52.270;10.546;2023-07-20T12:42:46;0.45;;;0.45;;
54452;SDS011;40363;52.270;10.546;2023-07-20T12:45:13;1.63;;;0.70;;
54452;SDS011;40363;52.270;10.546;2023-07-20T12:47:39;1.33;;;0.50;;
54452;SDS011;40363;52.270;10.546;2023-07-20T12:50:07;1.40;;;0.60;;
54452;SDS011;40363;52.270;10.546;2023-07-20T12:52:35;2.28;;;0.70;;
54452;SDS011;40363;52.270;10.546;2023-07-20T12:55:04;0.98;;;0.60;;
54452;SDS011;40363;52.270;10.546;2023-07-20T12:57:32;1.58;;;0.68;;
54452;SDS011;40363;52.270;10.546;2023-07-20T12:59:59;0.68;;;0.50;;
54452;SDS011;40363;52.270;10.546;2023-07-20T13:02:26;1.00;;;0.60;;
54452;SDS011;40363;52.270;10.546;2023-07-20T13:04:53;1.02;;;0.60;;
54452;SDS011;40363;52.270;10.546;2023-07-20T13:07:22;0.65;;;0.40;;
54452;SDS011;40363;52.270;10.546;2023-07-20T13:09:55;0.68;;;0.60;;
54452;SDS011;40363;52.270;10.546;2023-07-20T13:12:24;0.98;;;0.50;;
54452;SDS011;40363;52.270;10.546;2023-07-20T13:14:50;1.70;;;0.60;;
54452;SDS011;40363;52.270;10.546;2023-07-20T13:17:17;2.30;;;0.80;;
54452;SDS011;40363;52.270;10.546;2023-07-20T13:19:43;1.17;;;0.50;;
54452;SDS011;40363;52.270;10.546;2023-07-20T13:22:10;4.75;;;0.70;;
54452;SDS011;40363;52.270;10.546;2023-07-20T13:24:37;1.20;;;0.63;;
54452;SDS011;40363;52.270;10.546;2023-07-20T13:27:03;1.55;;;0.50;;
54452;SDS011;40363;52.270;10.546;2023-07-20T13:29:31;0.60;;;0.60;;
54452;SDS011;40363;52.270;10.546;2023-07-20T13:31:58;3.33;;;2.60;;
54452;SDS011;40363;52.270;10.546;2023-07-20T13:34:25;0.50;;;0.50;;
54452;SDS011;40363;52.270;10.546;2023-07-20T13:36:52;1.88;;;0.70;;
54452;SDS011;40363;52.270;10.546;2023-07-20T13:39:18;1.02;;;0.70;;
54452;SDS011;40363;52.270;10.546;2023-07-20T13:41:45;3.28;;;0.70;;
54452;SDS011;40363;52.270;10.546;2023-07-20T13:44:11;0.93;;;0.47;;
54452;SDS011;40363;52.270;10.546;2023-07-20T13:46:39;1.33;;;0.82;;
54452;SDS011;40363;52.270;10.546;2023-07-20T13:49:05;0.95;;;0.60;;
54452;SDS011;40363;52.270;10.546;2023-07-20T13:51:32;0.47;;;0.47;;
54452;SDS011;40363;52.270;10.546;2023-07-20T13:53:58;1.27;;;0.70;;
54452;SDS011;40363;52.270;10.546;2023-07-20T13:56:25;1.58;;;0.60;;
54452;SDS011;40363;52.270;10.546;2023-07-20T13:58:53;1.17;;;0.73;;
54452;SDS011;40363;52.270;10.546;2023-07-20T14:01:19;2.05;;;0.82;;
54452;SDS011;40363;52.270;10.546;2023-07-20T14:03:49;1.80;;;0.73;;
54452;SDS011;40363;52.270;10.546;2023-07-20T14:06:16;2.63;;;0.85;;
54452;SDS011;40363;52.270;10.546;2023-07-20T14:08:42;0.95;;;0.40;;
54452;SDS011;40363;52.270;10.546;2023-07-20T14:11:11;0.75;;;0.70;;
54452;SDS011;40363;52.270;10.546;2023-07-20T14:13:38;0.60;;;0.50;;
54452;SDS011;40363;52.270;10.546;2023-07-20T14:16:04;1.55;;;0.95;;
54452;SDS011;40363;52.270;10.546;2023-07-20T14:18:31;1.02;;;0.70;;
54452;SDS011;40363;52.270;10.546;2023-07-20T14:20:59;2.08;;;0.75;;
54452;SDS011;40363;52.270;10.546;2023-07-20T14:23:28;1.60;;;0.80;;
54452;SDS011;40363;52.270;10.546;2023-07-20T14:25:54;1.58;;;0.70;;
54452;SDS011;40363;52.270;10.546;2023-07-20T14:28:21;4.35;;;0.60;;
54452;SDS011;40363;52.270;10.546;2023-07-20T14:30:47;1.33;;;0.50;;
54452;SDS011;40363;52.270;10.546;2023-07-20T14:33:14;2.05;;;0.93;;
54452;SDS011;40363;52.270;10.546;2023-07-20T14:35:41;0.90;;;0.50;;
54452;SDS011;40363;52.270;10.546;2023-07-20T14:38:08;0.65;;;0.50;;